Terminal Aerodrome Forecast
Issued by NWS

Home | Current Version | Previous Version | Text Only | Print | Product List | Glossary On
Versions: 1 2 3 4 5 6 7 8 9 10 11 12 13 14 15 16
000
FTUS44 KOUN 262147 AAA
TAFCSM
TAF AMD
KCSM 262147Z 2622/2718 17024G34KT P6SM SCT045
     FM270200 20020G28KT 5SM TSRA BKN025CB
     FM270400 16015G22KT P6SM OVC020=

USA.gov is the U.S. government's official web portal to all federal, state and local government web resources and services.